• Join FlightAware (Why Join?)
  • Login
  • US Flag 
01:03PM EDT


 

Airport Tracker/Info


-or-


 

Live Flight TrackerFlight Track Log ✈ AAL1612 ✈ 18-Jul-2008 ✈ KSFO - KSLC

Flight Track Log - Related Links

Times and Time Zones

All times are in EDT time to prevent confusion due to time zone crossing. See the AAL1612 flight status page for this flight to view local times or setup timezone preferences in your user account.

Time Position Orientation Groundspeed Altitude Reporting Facility
EDT Latitude Longitude Course Direction KTS MPH feet Rate Location/Type
01:01PM 37.6500 -122.3500 58° Northeast 169 194 1,400  Level Northern Cal TRACON
01:02PM 37.6833 -122.2830 46° Northeast 241 277 3,700 2,640 Climbing Northern Cal TRACON
01:03PM 37.7333 -122.2170 38° Northeast 265 305 6,800 3,000 Climbing Northern Cal TRACON
01:04PM 37.8000 -122.1500 32° Northeast 289 333 9,800 2,460 Climbing Northern Cal TRACON
01:05PM 37.8833 -122.0830 40° Northeast 336 387 11,800 2,160 Climbing Northern Cal TRACON
01:05PM 37.8933 -122.0660 38° Northeast 37,000 2,280 Climbing Oakland Center
01:06PM 37.9714 -121.9880 35° Northeast 440 506 14,700 -9,900 Descending Oakland Center
01:07PM 38.0636 -121.9070 36° Northeast 411 473 17,300 2,460 Climbing Oakland Center
01:08PM 38.1542 -121.8240 37° Northeast 405 466 19,700 2,340 Climbing Oakland Center
01:09PM 38.2464 -121.7350 36° Northeast 405 466 22,000 2,160 Climbing Oakland Center
01:10PM 38.3472 -121.6430 38° Northeast 416 479 24,100 2,100 Climbing Oakland Center
01:11PM 38.4478 -121.5410 53° Northeast 437 503 26,200 1,920 Climbing Oakland Center
01:12PM 38.5317 -121.3980 54° Northeast 465 535 28,000 1,860 Climbing Oakland Center
01:13PM 38.6136 -121.2550 51° Northeast 478 550 30,000 2,160 Climbing Oakland Center
01:14PM 38.7075 -121.1040 54° Northeast 488 562 32,400 2,100 Climbing Oakland Center
01:15PM 38.7869 -120.9630 54° Northeast 488 562 34,200 1,260 Climbing Oakland Center
01:16PM 38.8661 -120.8240 52° Northeast 488 562 35,000 360 Climbing Oakland Center
01:17PM 38.9492 -120.6850 54° Northeast 483 556 35,000  Level Oakland Center
01:18PM 39.0303 -120.5430 54° Northeast 483 556 35,000  Level Oakland Center
01:19PM 39.1108 -120.4010 53° Northeast 483 556 35,000  Level Oakland Center
01:20PM 39.1914 -120.2630 54° Northeast 483 556 35,000  Level Oakland Center
01:21PM 39.2575 -120.1470 55° Northeast 483 556 35,000  Level Oakland Center
01:22PM 39.3478 -119.9830 54° Northeast 477 549 35,000  Level Oakland Center
01:23PM 39.4300 -119.8390 54° Northeast 482 555 35,000  Level Oakland Center
01:24PM 39.5097 -119.6980 54° Northeast 482 555 35,000  Level Oakland Center
01:25PM 39.5894 -119.5540 54° Northeast 482 555 35,000  Level Oakland Center
01:26PM 39.6692 -119.4120 54° Northeast 482 555 35,000  Level Oakland Center
01:27PM 39.7506 -119.2670 55° Northeast 482 555 35,000  Level Oakland Center
01:28PM 39.8294 -119.1220 55° Northeast 482 555 35,000  Level Oakland Center
01:29PM 39.9083 -118.9730 65° Northeast 487 560 35,000  Level Oakland Center
01:30PM 39.9683 -118.8080 67° East 484 557 35,000  Level Salt Lake Center
01:31PM 40.0242 -118.6390 66° East 502 578 35,000  Level Salt Lake Center
01:32PM 40.0792 -118.4770 67° East 502 578 35,000  Level Salt Lake Center
01:33PM 40.1322 -118.3120 67° East 502 578 35,000  Level Salt Lake Center
01:34PM 40.1822 -118.1570 67° East 502 578 35,000  Level Salt Lake Center
01:35PM 40.2403 -117.9730 67° East 497 572 35,000  Level Salt Lake Center
01:36PM 40.2944 -117.8070 68° East 497 572 35,000  Level Salt Lake Center
01:37PM 40.3467 -117.6380 68° East 503 579 35,000  Level Salt Lake Center
01:38PM 40.3958 -117.4820 67° East 503 579 35,000  Level Salt Lake Center
01:39PM 40.4494 -117.3160 67° East 503 579 35,000  Level Salt Lake Center
01:40PM 40.5081 -117.1300 67° East 503 579 35,000  Level Salt Lake Center
01:41PM 40.5639 -116.9550 70° East 503 579 35,000 -300 Level Salt Lake Center
01:42PM 40.6108 -116.7820 67° East 503 579 34,400 -1,800 Descending Salt Lake Center
01:43PM 40.6608 -116.6270 48° Northeast 498 573 31,400 -2,520 Descending Salt Lake Center
01:44PM 40.7511 -116.4930 65° Northeast 486 559 29,400 -1,200 Descending Salt Lake Center
01:45PM 40.8142 -116.3170 73° East 486 559 29,100 300 Descending Salt Lake Center
01:46PM 40.8539 -116.1450 73° East 489 563 30,000 1,500 Climbing Salt Lake Center
01:47PM 40.8958 -115.9640 74° East 508 585 32,100 1,920 Climbing Salt Lake Center
01:48PM 40.9325 -115.7990 73° East 514 592 33,900 1,440 Climbing Salt Lake Center
01:49PM 40.9789 -115.6020 73° East 507 583 35,000 540 Climbing Salt Lake Center
01:50PM 41.0197 -115.4230 74° East 507 583 35,000  Level Salt Lake Center
01:51PM 41.0581 -115.2500 73° East 502 578 35,000 -900 Level Salt Lake Center
01:52PM 41.0958 -115.0870 79° East 507 583 33,200 -3,120 Descending Salt Lake Center
01:53PM 41.1242 -114.8900 101° East 507 583 28,800 -3,660 Descending Salt Lake Center
01:54PM 41.1006 -114.7340 117° Southeast 484 557 25,900 -3,900 Descending Salt Lake Center
01:55PM 41.0353 -114.5680 93° East 461 531 21,000 -4,500 Descending Salt Lake Center
01:56PM 41.0281 -114.4080 81° East 452 520 17,000 -3,660 Descending Salt Lake Center
01:57PM 41.0483 -114.2300 74° East 442 509 13,700 -1,920 Descending Salt Lake Center
01:58PM 41.0800 -114.0830 83° East 432 497 13,200 -300 Descending Salt Lake Center
01:59PM 41.0922 -113.9510 80° East 382 440 13,200  Level Salt Lake Center
02:00PM 41.1106 -113.8170 84° East 368 423 13,200 -300 Level Salt Lake Center
02:01PM 41.1206 -113.6830 85° East 368 423 12,700 -600 Descending Salt Lake Center
02:02PM 41.1300 -113.5480 84° East 368 423 12,000 -780 Descending Salt Lake Center
02:03PM 41.1394 -113.4190 84° East 362 417 11,200 -540 Descending Salt Lake Center
02:04PM 41.1489 -113.2890 86° East 357 411 11,000 -120 Descending Salt Lake Center
02:05PM 41.1558 -113.1580 84° East 357 411 11,000  Level Salt Lake Center
02:06PM 41.1647 -113.0390 85° East 352 405 11,000  Level Salt Lake Center
02:07PM 41.1736 -112.9040 85° East 352 405 11,000  Level Salt Lake Center
02:08PM 41.1822 -112.7750 85° East 357 411 11,000 -480 Level Salt Lake Center
02:09PM 41.1908 -112.6510 85° East 347 399 10,100 -780 Descending Salt Lake Center
02:10PM 41.1992 -112.5300 83° East 332 382 9,500 -600 Descending Salt Lake Center
02:11PM 41.2089 -112.4250 105° East 300 345 9,000 -600 Descending Salt Lake Center
02:12PM 41.1878 -112.3200 115° Southeast 270 311 8,300 -900 Descending Salt Lake Center
02:13PM 41.1575 -112.2330 121° Southeast 259 298 7,200 -660 Descending Salt Lake Center
02:14PM 41.1231 -112.1560 134° Southeast 254 292 7,000 -60 Descending Salt Lake Center
02:15PM 41.0761 -112.0910 146° Southeast 248 285 7,100 -420 Climbing Salt Lake Center
02:16PM 41.0286 -112.0490 156° South 223 257 6,200 -600 Descending Salt Lake Center
02:17PM 40.9789 -112.0200 173° South 200 230 6,000 -120 Descending Salt Lake Center
02:18PM 40.9228 -112.0110 174° South 195 224 6,000 -300 Level Salt Lake Center
02:19PM 40.8728 -112.0040 174° South 195 224 5,400 -600 Descending Salt Lake Center